sensor_id;sensor_type;location;lat;lon;timestamp;temperature;humidity
42201;DHT22;27869;51.442;7.540;2023-05-10T00:01:29;13.70;99.90
42201;DHT22;27869;51.442;7.540;2023-05-10T00:03:56;13.70;99.90
42201;DHT22;27869;51.442;7.540;2023-05-10T00:06:22;13.70;99.90
42201;DHT22;27869;51.442;7.540;2023-05-10T00:08:49;13.70;99.90
42201;DHT22;27869;51.442;7.540;2023-05-10T00:11:17;13.70;99.90
42201;DHT22;27869;51.442;7.540;2023-05-10T00:13:45;13.70;99.90
42201;DHT22;27869;51.442;7.540;2023-05-10T00:16:12;13.70;99.90
42201;DHT22;27869;51.442;7.540;2023-05-10T00:18:39;13.70;99.90
42201;DHT22;27869;51.442;7.540;2023-05-10T00:21:06;13.70;99.90
42201;DHT22;27869;51.442;7.540;2023-05-10T00:23:33;13.70;99.90
42201;DHT22;27869;51.442;7.540;2023-05-10T00:26:00;13.70;99.90
42201;DHT22;27869;51.442;7.540;2023-05-10T00:28:28;13.60;99.90
42201;DHT22;27869;51.442;7.540;2023-05-10T00:30:55;13.60;99.90
42201;DHT22;27869;51.442;7.540;2023-05-10T00:33:22;13.60;99.90
42201;DHT22;27869;51.442;7.540;2023-05-10T00:35:49;13.60;99.90
42201;DHT22;27869;51.442;7.540;2023-05-10T00:38:16;13.60;99.90
42201;DHT22;27869;51.442;7.540;2023-05-10T00:40:43;13.60;99.90
42201;DHT22;27869;51.442;7.540;2023-05-10T00:43:10;13.50;99.90
42201;DHT22;27869;51.442;7.540;2023-05-10T00:45:40;13.50;99.90
42201;DHT22;27869;51.442;7.540;2023-05-10T00:48:07;13.50;99.90
42201;DHT22;27869;51.442;7.540;2023-05-10T00:50:34;13.50;99.90
42201;DHT22;27869;51.442;7.540;2023-05-10T00:53:02;13.50;99.90
42201;DHT22;27869;51.442;7.540;2023-05-10T00:55:30;13.50;99.90
42201;DHT22;27869;51.442;7.540;2023-05-10T00:57:57;13.50;99.90
42201;DHT22;27869;51.442;7.540;2023-05-10T01:00:24;13.50;99.90
42201;DHT22;27869;51.442;7.540;2023-05-10T01:02:55;13.40;99.90
42201;DHT22;27869;51.442;7.540;2023-05-10T01:05:22;13.40;99.90
42201;DHT22;27869;51.442;7.540;2023-05-10T01:07:49;13.40;99.90
42201;DHT22;27869;51.442;7.540;2023-05-10T01:10:16;13.40;99.90
42201;DHT22;27869;51.442;7.540;2023-05-10T01:12:45;13.40;99.90
42201;DHT22;27869;51.442;7.540;2023-05-10T01:15:12;13.40;99.90
42201;DHT22;27869;51.442;7.540;2023-05-10T01:17:43;13.40;99.90
42201;DHT22;27869;51.442;7.540;2023-05-10T01:20:12;13.40;99.90
42201;DHT22;27869;51.442;7.540;2023-05-10T01:23:10;13.30;99.90
42201;DHT22;27869;51.442;7.540;2023-05-10T01:26:07;13.30;99.90
42201;DHT22;27869;51.442;7.540;2023-05-10T01:29:10;13.30;99.90
42201;DHT22;27869;51.442;7.540;2023-05-10T01:34:51;13.30;99.90
42201;DHT22;27869;51.442;7.540;2023-05-10T01:37:27;13.30;99.90
42201;DHT22;27869;51.442;7.540;2023-05-10T01:40:01;13.30;99.90
42201;DHT22;27869;51.442;7.540;2023-05-10T01:42:36;13.30;99.90
42201;DHT22;27869;51.442;7.540;2023-05-10T01:45:10;13.30;99.90
42201;DHT22;27869;51.442;7.540;2023-05-10T01:47:41;13.30;99.90
42201;DHT22;27869;51.442;7.540;2023-05-10T01:50:15;13.30;99.90
42201;DHT22;27869;51.442;7.540;2023-05-10T01:52:46;13.30;99.90
42201;DHT22;27869;51.442;7.540;2023-05-10T01:55:16;13.30;99.90
42201;DHT22;27869;51.442;7.540;2023-05-10T01:57:46;13.30;99.90
42201;DHT22;27869;51.442;7.540;2023-05-10T02:00:14;13.30;99.90
42201;DHT22;27869;51.442;7.540;2023-05-10T02:02:45;13.30;99.90
42201;DHT22;27869;51.442;7.540;2023-05-10T02:05:15;13.30;99.90
42201;DHT22;27869;51.442;7.540;2023-05-10T02:07:43;13.30;99.90
42201;DHT22;27869;51.442;7.540;2023-05-10T02:10:11;13.20;99.90
42201;DHT22;27869;51.442;7.540;2023-05-10T02:12:41;13.30;99.90
42201;DHT22;27869;51.442;7.540;2023-05-10T02:15:11;13.20;99.90
42201;DHT22;27869;51.442;7.540;2023-05-10T02:17:39;13.20;99.90
42201;DHT22;27869;51.442;7.540;2023-05-10T02:20:07;13.20;99.90
42201;DHT22;27869;51.442;7.540;2023-05-10T02:22:37;13.20;99.90
42201;DHT22;27869;51.442;7.540;2023-05-10T02:25:04;13.20;99.90
42201;DHT22;27869;51.442;7.540;2023-05-10T02:27:31;13.20;99.90
42201;DHT22;27869;51.442;7.540;2023-05-10T02:29:59;13.20;99.90
42201;DHT22;27869;51.442;7.540;2023-05-10T02:32:27;13.20;99.90
42201;DHT22;27869;51.442;7.540;2023-05-10T02:34:54;13.20;99.90
42201;DHT22;27869;51.442;7.540;2023-05-10T02:37:22;13.20;99.90
42201;DHT22;27869;51.442;7.540;2023-05-10T02:39:54;13.20;99.90
42201;DHT22;27869;51.442;7.540;2023-05-10T02:42:24;13.20;99.90
42201;DHT22;27869;51.442;7.540;2023-05-10T02:44:55;13.10;99.90
42201;DHT22;27869;51.442;7.540;2023-05-10T02:47:23;13.10;99.90
42201;DHT22;27869;51.442;7.540;2023-05-10T02:49:50;13.10;99.90
42201;DHT22;27869;51.442;7.540;2023-05-10T02:52:24;13.10;99.90
42201;DHT22;27869;51.442;7.540;2023-05-10T02:54:55;13.10;99.90
42201;DHT22;27869;51.442;7.540;2023-05-10T02:57:26;13.00;99.90
42201;DHT22;27869;51.442;7.540;2023-05-10T02:59:53;13.00;99.90
42201;DHT22;27869;51.442;7.540;2023-05-10T03:02:20;13.00;99.90
42201;DHT22;27869;51.442;7.540;2023-05-10T03:04:47;12.90;99.90
42201;DHT22;27869;51.442;7.540;2023-05-10T03:07:14;12.90;99.90
42201;DHT22;27869;51.442;7.540;2023-05-10T03:09:42;12.90;99.90
42201;DHT22;27869;51.442;7.540;2023-05-10T03:12:14;12.90;99.90
42201;DHT22;27869;51.442;7.540;2023-05-10T03:14:54;12.80;99.90
42201;DHT22;27869;51.442;7.540;2023-05-10T03:17:29;12.80;99.90
42201;DHT22;27869;51.442;7.540;2023-05-10T03:19:57;12.80;99.90
42201;DHT22;27869;51.442;7.540;2023-05-10T03:22:28;12.80;99.90
42201;DHT22;27869;51.442;7.540;2023-05-10T03:24:57;12.80;99.90
42201;DHT22;27869;51.442;7.540;2023-05-10T03:27:28;12.80;99.90
42201;DHT22;27869;51.442;7.540;2023-05-10T03:29:57;12.70;99.90
42201;DHT22;27869;51.442;7.540;2023-05-10T03:32:24;12.70;99.90
42201;DHT22;27869;51.442;7.540;2023-05-10T03:34:52;12.70;99.90
42201;DHT22;27869;51.442;7.540;2023-05-10T03:37:19;12.70;99.90
42201;DHT22;27869;51.442;7.540;2023-05-10T03:39:46;12.70;99.90
42201;DHT22;27869;51.442;7.540;2023-05-10T03:42:13;12.70;99.90
42201;DHT22;27869;51.442;7.540;2023-05-10T03:44:41;12.70;99.90
42201;DHT22;27869;51.442;7.540;2023-05-10T03:47:08;12.80;99.90
42201;DHT22;27869;51.442;7.540;2023-05-10T03:49:35;12.80;99.90
42201;DHT22;27869;51.442;7.540;2023-05-10T03:52:02;12.80;99.90
42201;DHT22;27869;51.442;7.540;2023-05-10T03:54:28;12.80;99.90
42201;DHT22;27869;51.442;7.540;2023-05-10T03:56:55;12.80;99.90
42201;DHT22;27869;51.442;7.540;2023-05-10T03:59:22;12.80;99.90
42201;DHT22;27869;51.442;7.540;2023-05-10T04:01:50;12.80;99.90
42201;DHT22;27869;51.442;7.540;2023-05-10T04:04:17;12.80;99.90
42201;DHT22;27869;51.442;7.540;2023-05-10T04:06:46;12.80;99.90
42201;DHT22;27869;51.442;7.540;2023-05-10T04:09:13;12.80;99.90
42201;DHT22;27869;51.442;7.540;2023-05-10T04:11:39;12.80;99.90
42201;DHT22;27869;51.442;7.540;2023-05-10T04:14:06;12.80;99.90
42201;DHT22;27869;51.442;7.540;2023-05-10T04:16:33;12.80;99.90
42201;DHT22;27869;51.442;7.540;2023-05-10T04:19:01;12.80;99.90
42201;DHT22;27869;51.442;7.540;2023-05-10T04:21:29;12.80;99.90
42201;DHT22;27869;51.442;7.540;2023-05-10T04:23:56;12.80;99.90
42201;DHT22;27869;51.442;7.540;2023-05-10T04:26:22;12.80;99.90
42201;DHT22;27869;51.442;7.540;2023-05-10T04:28:51;12.90;99.90
42201;DHT22;27869;51.442;7.540;2023-05-10T04:31:17;12.90;99.90
42201;DHT22;27869;51.442;7.540;2023-05-10T04:33:44;12.90;99.90
42201;DHT22;27869;51.442;7.540;2023-05-10T04:36:13;12.90;99.90
42201;DHT22;27869;51.442;7.540;2023-05-10T04:38:39;12.90;99.90
42201;DHT22;27869;51.442;7.540;2023-05-10T04:41:07;12.90;99.90
42201;DHT22;27869;51.442;7.540;2023-05-10T04:43:34;12.90;99.90
42201;DHT22;27869;51.442;7.540;2023-05-10T04:46:02;12.90;99.90
42201;DHT22;27869;51.442;7.540;2023-05-10T04:48:28;12.90;99.90
42201;DHT22;27869;51.442;7.540;2023-05-10T04:50:55;12.90;99.90
42201;DHT22;27869;51.442;7.540;2023-05-10T04:53:24;12.90;99.90
42201;DHT22;27869;51.442;7.540;2023-05-10T04:55:50;12.90;99.90
42201;DHT22;27869;51.442;7.540;2023-05-10T04:58:17;12.90;99.90
42201;DHT22;27869;51.442;7.540;2023-05-10T05:00:44;12.90;99.90
42201;DHT22;27869;51.442;7.540;2023-05-10T05:03:11;12.90;99.90
42201;DHT22;27869;51.442;7.540;2023-05-10T05:05:38;12.90;99.90
42201;DHT22;27869;51.442;7.540;2023-05-10T05:08:05;12.90;99.90
42201;DHT22;27869;51.442;7.540;2023-05-10T05:10:33;12.90;99.90
42201;DHT22;27869;51.442;7.540;2023-05-10T05:13:00;12.90;99.90
42201;DHT22;27869;51.442;7.540;2023-05-10T05:15:27;12.90;99.90
42201;DHT22;27869;51.442;7.540;2023-05-10T05:17:54;12.90;99.90
42201;DHT22;27869;51.442;7.540;2023-05-10T05:20:21;12.90;99.90
42201;DHT22;27869;51.442;7.540;2023-05-10T05:22:47;12.90;99.90
42201;DHT22;27869;51.442;7.540;2023-05-10T05:25:15;12.90;99.90
42201;DHT22;27869;51.442;7.540;2023-05-10T05:27:43;12.90;99.90
42201;DHT22;27869;51.442;7.540;2023-05-10T05:30:11;12.90;99.90
42201;DHT22;27869;51.442;7.540;2023-05-10T05:32:38;12.90;99.90
42201;DHT22;27869;51.442;7.540;2023-05-10T05:35:05;12.90;99.90
42201;DHT22;27869;51.442;7.540;2023-05-10T05:37:32;12.90;99.90
42201;DHT22;27869;51.442;7.540;2023-05-10T05:39:59;12.90;99.90
42201;DHT22;27869;51.442;7.540;2023-05-10T05:42:27;12.90;99.90
42201;DHT22;27869;51.442;7.540;2023-05-10T05:44:55;13.00;99.90
42201;DHT22;27869;51.442;7.540;2023-05-10T05:47:22;13.00;99.90
42201;DHT22;27869;51.442;7.540;2023-05-10T05:49:50;13.00;99.90
42201;DHT22;27869;51.442;7.540;2023-05-10T05:52:16;13.00;99.90
42201;DHT22;27869;51.442;7.540;2023-05-10T05:54:43;13.00;99.90
42201;DHT22;27869;51.442;7.540;2023-05-10T05:57:10;13.00;99.90
42201;DHT22;27869;51.442;7.540;2023-05-10T05:59:37;13.00;99.90
42201;DHT22;27869;51.442;7.540;2023-05-10T06:02:09;13.00;99.90
42201;DHT22;27869;51.442;7.540;2023-05-10T06:04:36;13.00;99.90
42201;DHT22;27869;51.442;7.540;2023-05-10T06:07:02;13.00;99.90
42201;DHT22;27869;51.442;7.540;2023-05-10T06:09:29;13.00;99.90
42201;DHT22;27869;51.442;7.540;2023-05-10T06:11:56;13.10;99.90
42201;DHT22;27869;51.442;7.540;2023-05-10T06:14:23;13.10;99.90
42201;DHT22;27869;51.442;7.540;2023-05-10T06:16:50;13.10;99.90
42201;DHT22;27869;51.442;7.540;2023-05-10T06:19:18;13.10;99.90
42201;DHT22;27869;51.442;7.540;2023-05-10T06:21:45;13.10;99.90
42201;DHT22;27869;51.442;7.540;2023-05-10T06:24:12;13.20;99.90
42201;DHT22;27869;51.442;7.540;2023-05-10T06:26:39;13.20;99.90
42201;DHT22;27869;51.442;7.540;2023-05-10T06:29:06;13.20;99.90
42201;DHT22;27869;51.442;7.540;2023-05-10T06:31:32;13.20;99.90
42201;DHT22;27869;51.442;7.540;2023-05-10T06:33:59;13.20;99.90
42201;DHT22;27869;51.442;7.540;2023-05-10T06:36:28;13.20;99.90
42201;DHT22;27869;51.442;7.540;2023-05-10T06:38:55;13.20;99.90
42201;DHT22;27869;51.442;7.540;2023-05-10T06:41:22;13.20;99.90
42201;DHT22;27869;51.442;7.540;2023-05-10T06:43:49;13.30;99.90
42201;DHT22;27869;51.442;7.540;2023-05-10T06:46:16;13.20;99.90
42201;DHT22;27869;51.442;7.540;2023-05-10T06:48:43;13.30;99.90
42201;DHT22;27869;51.442;7.540;2023-05-10T06:51:10;13.30;99.90
42201;DHT22;27869;51.442;7.540;2023-05-10T06:53:38;13.30;99.90
42201;DHT22;27869;51.442;7.540;2023-05-10T06:56:05;13.30;99.90
42201;DHT22;27869;51.442;7.540;2023-05-10T06:58:32;13.30;99.90
42201;DHT22;27869;51.442;7.540;2023-05-10T07:01:02;13.30;99.90
42201;DHT22;27869;51.442;7.540;2023-05-10T07:03:30;13.30;99.90
42201;DHT22;27869;51.442;7.540;2023-05-10T07:06:00;13.30;99.90
42201;DHT22;27869;51.442;7.540;2023-05-10T07:08:29;13.40;99.90
42201;DHT22;27869;51.442;7.540;2023-05-10T07:11:01;13.40;99.90
42201;DHT22;27869;51.442;7.540;2023-05-10T07:13:29;13.40;99.90
42201;DHT22;27869;51.442;7.540;2023-05-10T07:15:56;13.50;99.90
42201;DHT22;27869;51.442;7.540;2023-05-10T07:18:23;13.50;99.90
42201;DHT22;27869;51.442;7.540;2023-05-10T07:20:50;13.60;99.90
42201;DHT22;27869;51.442;7.540;2023-05-10T07:23:17;13.70;99.90
42201;DHT22;27869;51.442;7.540;2023-05-10T07:25:45;13.80;99.90
42201;DHT22;27869;51.442;7.540;2023-05-10T07:28:14;13.90;99.90
42201;DHT22;27869;51.442;7.540;2023-05-10T07:30:42;13.90;99.90
42201;DHT22;27869;51.442;7.540;2023-05-10T07:33:10;13.90;99.90
42201;DHT22;27869;51.442;7.540;2023-05-10T07:35:37;14.00;99.90
42201;DHT22;27869;51.442;7.540;2023-05-10T07:38:04;14.10;99.90
42201;DHT22;27869;51.442;7.540;2023-05-10T07:40:31;14.20;99.90
42201;DHT22;27869;51.442;7.540;2023-05-10T07:42:58;14.20;99.90
42201;DHT22;27869;51.442;7.540;2023-05-10T07:45:26;14.30;99.90
42201;DHT22;27869;51.442;7.540;2023-05-10T07:47:53;14.30;99.90
42201;DHT22;27869;51.442;7.540;2023-05-10T07:50:20;14.30;99.90
42201;DHT22;27869;51.442;7.540;2023-05-10T07:52:47;14.30;99.90
42201;DHT22;27869;51.442;7.540;2023-05-10T07:55:14;14.40;99.90
42201;DHT22;27869;51.442;7.540;2023-05-10T07:57:42;14.50;99.90
42201;DHT22;27869;51.442;7.540;2023-05-10T08:00:11;14.60;99.90
42201;DHT22;27869;51.442;7.540;2023-05-10T08:02:40;14.70;99.90
42201;DHT22;27869;51.442;7.540;2023-05-10T08:05:08;14.70;99.90
42201;DHT22;27869;51.442;7.540;2023-05-10T08:07:35;14.70;99.90
42201;DHT22;27869;51.442;7.540;2023-05-10T08:10:02;14.80;99.90
42201;DHT22;27869;51.442;7.540;2023-05-10T08:12:29;14.80;99.90
42201;DHT22;27869;51.442;7.540;2023-05-10T08:14:55;14.80;99.90
42201;DHT22;27869;51.442;7.540;2023-05-10T08:17:23;14.70;99.90
42201;DHT22;27869;51.442;7.540;2023-05-10T08:19:51;14.70;99.90
42201;DHT22;27869;51.442;7.540;2023-05-10T08:22:18;14.70;99.90
42201;DHT22;27869;51.442;7.540;2023-05-10T08:24:45;14.80;99.90
42201;DHT22;27869;51.442;7.540;2023-05-10T08:27:12;14.90;99.90
42201;DHT22;27869;51.442;7.540;2023-05-10T08:29:39;15.00;99.90
42201;DHT22;27869;51.442;7.540;2023-05-10T08:32:05;15.10;99.90
42201;DHT22;27869;51.442;7.540;2023-05-10T08:34:33;15.20;99.90
42201;DHT22;27869;51.442;7.540;2023-05-10T08:37:01;15.30;99.90
42201;DHT22;27869;51.442;7.540;2023-05-10T08:39:28;15.40;99.90
42201;DHT22;27869;51.442;7.540;2023-05-10T08:41:57;15.40;99.90
42201;DHT22;27869;51.442;7.540;2023-05-10T08:44:26;15.50;99.90
42201;DHT22;27869;51.442;7.540;2023-05-10T08:46:54;15.50;99.90
42201;DHT22;27869;51.442;7.540;2023-05-10T08:49:21;15.50;99.90
42201;DHT22;27869;51.442;7.540;2023-05-10T08:51:52;15.50;99.90
42201;DHT22;27869;51.442;7.540;2023-05-10T08:54:23;15.50;99.90
42201;DHT22;27869;51.442;7.540;2023-05-10T08:56:50;15.50;99.90
42201;DHT22;27869;51.442;7.540;2023-05-10T08:59:18;15.60;99.90
42201;DHT22;27869;51.442;7.540;2023-05-10T09:01:47;15.70;99.90
42201;DHT22;27869;51.442;7.540;2023-05-10T09:04:14;15.80;99.90
42201;DHT22;27869;51.442;7.540;2023-05-10T09:06:41;15.90;99.90
42201;DHT22;27869;51.442;7.540;2023-05-10T09:09:08;16.00;99.90
42201;DHT22;27869;51.442;7.540;2023-05-10T09:11:37;16.00;99.90
42201;DHT22;27869;51.442;7.540;2023-05-10T09:14:04;16.00;99.90
42201;DHT22;27869;51.442;7.540;2023-05-10T09:16:31;16.00;99.90
42201;DHT22;27869;51.442;7.540;2023-05-10T09:18:58;16.20;99.90
42201;DHT22;27869;51.442;7.540;2023-05-10T09:21:25;16.30;99.90
42201;DHT22;27869;51.442;7.540;2023-05-10T09:23:52;16.50;99.90
42201;DHT22;27869;51.442;7.540;2023-05-10T09:26:22;16.70;99.90
42201;DHT22;27869;51.442;7.540;2023-05-10T09:28:53;16.70;99.90
42201;DHT22;27869;51.442;7.540;2023-05-10T09:31:20;16.70;99.90
42201;DHT22;27869;51.442;7.540;2023-05-10T09:33:47;16.70;99.90
42201;DHT22;27869;51.442;7.540;2023-05-10T09:36:15;16.70;99.90
42201;DHT22;27869;51.442;7.540;2023-05-10T09:38:46;16.60;99.90
42201;DHT22;27869;51.442;7.540;2023-05-10T09:41:17;16.70;99.90
42201;DHT22;27869;51.442;7.540;2023-05-10T09:43:44;16.70;99.90
42201;DHT22;27869;51.442;7.540;2023-05-10T09:46:13;16.80;99.90
42201;DHT22;27869;51.442;7.540;2023-05-10T09:48:44;16.90;99.90
42201;DHT22;27869;51.442;7.540;2023-05-10T09:51:19;17.00;99.90
42201;DHT22;27869;51.442;7.540;2023-05-10T09:53:46;17.00;99.90
42201;DHT22;27869;51.442;7.540;2023-05-10T09:56:13;17.00;99.90
42201;DHT22;27869;51.442;7.540;2023-05-10T09:58:40;17.00;99.90
42201;DHT22;27869;51.442;7.540;2023-05-10T10:01:11;16.90;99.90
42201;DHT22;27869;51.442;7.540;2023-05-10T10:03:42;16.90;99.90
42201;DHT22;27869;51.442;7.540;2023-05-10T10:06:09;17.00;99.90
42201;DHT22;27869;51.442;7.540;2023-05-10T10:08:37;17.00;99.90
42201;DHT22;27869;51.442;7.540;2023-05-10T10:11:04;17.10;99.90
42201;DHT22;27869;51.442;7.540;2023-05-10T10:13:30;17.00;99.90
42201;DHT22;27869;51.442;7.540;2023-05-10T10:15:58;17.00;99.90
42201;DHT22;27869;51.442;7.540;2023-05-10T10:18:25;17.10;99.90
42201;DHT22;27869;51.442;7.540;2023-05-10T10:20:56;17.20;99.90
42201;DHT22;27869;51.442;7.540;2023-05-10T10:23:23;17.20;99.90
42201;DHT22;27869;51.442;7.540;2023-05-10T10:25:50;17.30;99.90
42201;DHT22;27869;51.442;7.540;2023-05-10T10:28:24;17.20;99.90
42201;DHT22;27869;51.442;7.540;2023-05-10T10:30:55;17.30;99.90
42201;DHT22;27869;51.442;7.540;2023-05-10T10:33:36;17.40;99.90
42201;DHT22;27869;51.442;7.540;2023-05-10T10:36:07;17.40;99.90
42201;DHT22;27869;51.442;7.540;2023-05-10T10:41:28;17.30;99.90
42201;DHT22;27869;51.442;7.540;2023-05-10T10:44:23;17.30;99.90
42201;DHT22;27869;51.442;7.540;2023-05-10T10:47:04;17.20;99.90
42201;DHT22;27869;51.442;7.540;2023-05-10T10:49:37;17.20;99.90
42201;DHT22;27869;51.442;7.540;2023-05-10T10:52:24;17.20;99.90
42201;DHT22;27869;51.442;7.540;2023-05-10T10:54:58;17.10;99.90
42201;DHT22;27869;51.442;7.540;2023-05-10T10:57:26;17.10;99.90
42201;DHT22;27869;51.442;7.540;2023-05-10T11:03:04;17.20;99.90
42201;DHT22;27869;51.442;7.540;2023-05-10T11:05:41;17.30;99.90
42201;DHT22;27869;51.442;7.540;2023-05-10T11:08:15;17.30;99.90
42201;DHT22;27869;51.442;7.540;2023-05-10T11:10:51;17.30;99.90
42201;DHT22;27869;51.442;7.540;2023-05-10T11:13:27;17.20;99.90
42201;DHT22;27869;51.442;7.540;2023-05-10T11:15:55;17.10;99.90
42201;DHT22;27869;51.442;7.540;2023-05-10T11:18:25;17.10;99.90
42201;DHT22;27869;51.442;7.540;2023-05-10T11:20:55;17.00;99.90
42201;DHT22;27869;51.442;7.540;2023-05-10T11:23:30;17.00;99.90
42201;DHT22;27869;51.442;7.540;2023-05-10T11:26:00;16.80;99.90
42201;DHT22;27869;51.442;7.540;2023-05-10T11:28:27;16.70;99.90
42201;DHT22;27869;51.442;7.540;2023-05-10T11:30:54;16.70;99.90
42201;DHT22;27869;51.442;7.540;2023-05-10T11:33:22;16.70;99.90
42201;DHT22;27869;51.442;7.540;2023-05-10T11:35:49;16.70;99.90
42201;DHT22;27869;51.442;7.540;2023-05-10T11:38:16;16.60;99.90
42201;DHT22;27869;51.442;7.540;2023-05-10T11:40:44;16.50;99.90
42201;DHT22;27869;51.442;7.540;2023-05-10T11:43:11;16.50;99.90
42201;DHT22;27869;51.442;7.540;2023-05-10T11:45:38;16.50;99.90
42201;DHT22;27869;51.442;7.540;2023-05-10T11:48:06;16.50;99.90
42201;DHT22;27869;51.442;7.540;2023-05-10T11:50:33;16.40;99.90
42201;DHT22;27869;51.442;7.540;2023-05-10T11:53:00;16.50;99.90
42201;DHT22;27869;51.442;7.540;2023-05-10T11:55:27;16.50;99.90
42201;DHT22;27869;51.442;7.540;2023-05-10T11:58:01;16.50;99.90
42201;DHT22;27869;51.442;7.540;2023-05-10T12:00:28;16.50;99.90
42201;DHT22;27869;51.442;7.540;2023-05-10T12:02:55;16.40;99.90
42201;DHT22;27869;51.442;7.540;2023-05-10T12:05:23;16.40;99.90
42201;DHT22;27869;51.442;7.540;2023-05-10T12:07:50;16.50;99.90
42201;DHT22;27869;51.442;7.540;2023-05-10T12:10:25;16.50;99.90
42201;DHT22;27869;51.442;7.540;2023-05-10T12:12:53;16.60;99.90
42201;DHT22;27869;51.442;7.540;2023-05-10T12:15:22;16.60;99.90
42201;DHT22;27869;51.442;7.540;2023-05-10T12:17:50;16.60;99.90
42201;DHT22;27869;51.442;7.540;2023-05-10T12:20:18;16.60;99.90
42201;DHT22;27869;51.442;7.540;2023-05-10T12:22:50;16.50;99.90
42201;DHT22;27869;51.442;7.540;2023-05-10T12:25:17;16.50;99.90
42201;DHT22;27869;51.442;7.540;2023-05-10T12:27:55;16.40;99.90
42201;DHT22;27869;51.442;7.540;2023-05-10T12:30:25;16.40;99.90
42201;DHT22;27869;51.442;7.540;2023-05-10T12:32:53;16.40;99.90
42201;DHT22;27869;51.442;7.540;2023-05-10T12:35:20;16.40;99.90
42201;DHT22;27869;51.442;7.540;2023-05-10T12:37:50;16.40;99.90
42201;DHT22;27869;51.442;7.540;2023-05-10T12:40:17;16.40;99.90
42201;DHT22;27869;51.442;7.540;2023-05-10T12:42:44;16.40;99.90
42201;DHT22;27869;51.442;7.540;2023-05-10T12:45:11;16.40;99.90
42201;DHT22;27869;51.442;7.540;2023-05-10T12:47:40;16.50;99.90
42201;DHT22;27869;51.442;7.540;2023-05-10T12:50:07;16.50;99.90
42201;DHT22;27869;51.442;7.540;2023-05-10T12:52:34;16.50;99.90
42201;DHT22;27869;51.442;7.540;2023-05-10T12:55:01;16.60;99.90
42201;DHT22;27869;51.442;7.540;2023-05-10T12:57:29;16.70;99.90
42201;DHT22;27869;51.442;7.540;2023-05-10T12:59:56;16.70;99.90
42201;DHT22;27869;51.442;7.540;2023-05-10T13:02:23;16.80;99.90
42201;DHT22;27869;51.442;7.540;2023-05-10T13:04:51;16.80;99.90
42201;DHT22;27869;51.442;7.540;2023-05-10T13:07:18;16.90;99.90
42201;DHT22;27869;51.442;7.540;2023-05-10T13:09:45;16.90;99.90
42201;DHT22;27869;51.442;7.540;2023-05-10T13:12:12;16.90;99.90
42201;DHT22;27869;51.442;7.540;2023-05-10T13:14:39;16.90;99.90
42201;DHT22;27869;51.442;7.540;2023-05-10T13:17:07;16.90;99.90
42201;DHT22;27869;51.442;7.540;2023-05-10T13:19:34;16.90;99.90
42201;DHT22;27869;51.442;7.540;2023-05-10T13:22:03;17.00;99.90
42201;DHT22;27869;51.442;7.540;2023-05-10T13:24:30;17.10;99.90
42201;DHT22;27869;51.442;7.540;2023-05-10T13:26:59;17.10;99.90
42201;DHT22;27869;51.442;7.540;2023-05-10T13:29:26;17.20;99.90
42201;DHT22;27869;51.442;7.540;2023-05-10T13:31:53;17.30;99.90
42201;DHT22;27869;51.442;7.540;2023-05-10T13:34:20;17.30;99.90
42201;DHT22;27869;51.442;7.540;2023-05-10T13:36:47;17.40;99.90
42201;DHT22;27869;51.442;7.540;2023-05-10T13:39:16;17.40;99.90
42201;DHT22;27869;51.442;7.540;2023-05-10T13:41:43;17.40;99.90
42201;DHT22;27869;51.442;7.540;2023-05-10T13:44:12;17.40;99.90
42201;DHT22;27869;51.442;7.540;2023-05-10T13:46:39;17.30;99.90
42201;DHT22;27869;51.442;7.540;2023-05-10T13:49:06;17.30;99.90
42201;DHT22;27869;51.442;7.540;2023-05-10T13:51:33;17.30;99.90
42201;DHT22;27869;51.442;7.540;2023-05-10T13:54:01;17.20;99.90
42201;DHT22;27869;51.442;7.540;2023-05-10T13:56:29;17.30;99.90
42201;DHT22;27869;51.442;7.540;2023-05-10T13:58:56;17.20;99.90
42201;DHT22;27869;51.442;7.540;2023-05-10T14:01:23;17.30;99.90
42201;DHT22;27869;51.442;7.540;2023-05-10T14:03:50;17.30;99.90
42201;DHT22;27869;51.442;7.540;2023-05-10T14:06:17;17.30;99.90
42201;DHT22;27869;51.442;7.540;2023-05-10T14:08:44;17.30;99.90
42201;DHT22;27869;51.442;7.540;2023-05-10T14:11:11;17.40;99.90
42201;DHT22;27869;51.442;7.540;2023-05-10T14:13:39;17.40;99.90
42201;DHT22;27869;51.442;7.540;2023-05-10T14:16:06;17.40;99.90
42201;DHT22;27869;51.442;7.540;2023-05-10T14:18:33;17.30;99.90
42201;DHT22;27869;51.442;7.540;2023-05-10T14:21:02;17.40;99.90
42201;DHT22;27869;51.442;7.540;2023-05-10T14:23:29;17.40;99.90
42201;DHT22;27869;51.442;7.540;2023-05-10T14:25:56;17.40;99.90
42201;DHT22;27869;51.442;7.540;2023-05-10T14:28:23;17.50;99.90
42201;DHT22;27869;51.442;7.540;2023-05-10T14:30:51;17.50;99.90
42201;DHT22;27869;51.442;7.540;2023-05-10T14:33:18;17.60;99.90
42201;DHT22;27869;51.442;7.540;2023-05-10T14:35:46;17.60;99.90
42201;DHT22;27869;51.442;7.540;2023-05-10T14:38:13;17.60;99.90
42201;DHT22;27869;51.442;7.540;2023-05-10T14:40:40;17.60;99.90
42201;DHT22;27869;51.442;7.540;2023-05-10T14:43:07;17.60;99.90
42201;DHT22;27869;51.442;7.540;2023-05-10T14:45:34;17.70;99.90
42201;DHT22;27869;51.442;7.540;2023-05-10T14:48:03;17.70;99.90
42201;DHT22;27869;51.442;7.540;2023-05-10T14:50:30;17.70;99.90
42201;DHT22;27869;51.442;7.540;2023-05-10T14:52:57;17.70;99.90
42201;DHT22;27869;51.442;7.540;2023-05-10T14:55:24;17.80;99.90
42201;DHT22;27869;51.442;7.540;2023-05-10T14:57:51;17.80;99.90
42201;DHT22;27869;51.442;7.540;2023-05-10T15:00:19;17.80;99.90
42201;DHT22;27869;51.442;7.540;2023-05-10T15:02:46;17.90;99.90
42201;DHT22;27869;51.442;7.540;2023-05-10T15:05:15;17.90;99.90
42201;DHT22;27869;51.442;7.540;2023-05-10T15:07:42;18.00;99.90
42201;DHT22;27869;51.442;7.540;2023-05-10T15:10:09;18.00;99.90
42201;DHT22;27869;51.442;7.540;2023-05-10T15:12:37;18.10;99.90
42201;DHT22;27869;51.442;7.540;2023-05-10T15:15:05;18.10;99.90
42201;DHT22;27869;51.442;7.540;2023-05-10T15:17:32;18.10;99.90
42201;DHT22;27869;51.442;7.540;2023-05-10T15:19:59;18.20;99.90
42201;DHT22;27869;51.442;7.540;2023-05-10T15:22:29;18.20;99.90
42201;DHT22;27869;51.442;7.540;2023-05-10T15:24:57;18.30;99.90
42201;DHT22;27869;51.442;7.540;2023-05-10T15:27:24;18.30;99.90
42201;DHT22;27869;51.442;7.540;2023-05-10T15:29:51;18.40;99.90
42201;DHT22;27869;51.442;7.540;2023-05-10T15:32:18;18.40;99.90
42201;DHT22;27869;51.442;7.540;2023-05-10T15:34:44;18.40;99.90
42201;DHT22;27869;51.442;7.540;2023-05-10T15:37:11;18.40;99.90
42201;DHT22;27869;51.442;7.540;2023-05-10T15:39:40;18.30;99.90
42201;DHT22;27869;51.442;7.540;2023-05-10T15:42:07;18.30;99.90
42201;DHT22;27869;51.442;7.540;2023-05-10T15:44:33;18.30;99.90
42201;DHT22;27869;51.442;7.540;2023-05-10T15:47:04;18.20;99.90